createdAt,value
2022-11-10T00:02:57.303Z,99737.22
2022-11-10T00:06:04.967Z,99736.44
2022-11-10T00:09:11.708Z,99739.09
2022-11-10T00:12:17.736Z,99746.09
2022-11-10T00:15:41.445Z,99739.31
2022-11-10T00:18:51.015Z,99730.91
2022-11-10T00:21:57.321Z,99739.53
2022-11-10T00:25:03.106Z,99746.53
2022-11-10T00:28:08.957Z,99745.81
2022-11-10T00:31:17.055Z,99745.13
2022-11-10T00:34:25.196Z,99751.38
2022-11-10T00:37:31.911Z,99755.78
2022-11-10T00:40:38.010Z,99752.63
2022-11-10T00:43:44.153Z,99762.19
2022-11-10T00:46:49.823Z,99759.72
2022-11-10T00:49:57.027Z,99765.09
2022-11-10T00:53:02.638Z,99767.84
2022-11-10T00:56:08.682Z,99779.25
2022-11-10T00:59:14.723Z,99783.69
2022-11-10T01:02:20.575Z,99786.44
2022-11-10T01:05:28.089Z,99797.66
2022-11-10T01:08:33.829Z,99805.53
2022-11-10T01:11:40.001Z,99809.03
2022-11-10T01:14:48.860Z,99805.63
2022-11-10T01:17:56.199Z,99807.41
2022-11-10T01:21:05.284Z,99819.38
2022-11-10T01:24:11.516Z,99832.44
2022-11-10T01:27:17.634Z,99836.84
2022-11-10T01:30:23.729Z,99833.66
2022-11-10T01:33:30.378Z,99849.06
2022-11-10T01:36:37.689Z,99845.78
2022-11-10T01:39:43.446Z,99851.94
2022-11-10T01:42:57.307Z,99851.22
2022-11-10T01:46:04.964Z,99849.50
2022-11-10T01:49:12.691Z,99852.06
2022-11-10T01:52:20.161Z,99857.19
2022-11-10T01:55:27.228Z,99864.13
2022-11-10T01:58:39.978Z,99855.63
2022-11-10T02:01:48.327Z,99869.38
2022-11-10T02:04:54.302Z,99870.41
2022-11-10T02:08:02.942Z,99877.34
2022-11-10T02:11:08.881Z,99876.66
2022-11-10T02:14:16.516Z,99877.56
2022-11-10T02:17:22.027Z,99875.13
2022-11-10T02:20:27.763Z,99876.88
2022-11-10T02:23:49.049Z,99883.72
2022-11-10T02:26:57.338Z,99891.53
2022-11-10T02:30:03.354Z,99892.44
2022-11-10T02:33:09.137Z,99887.41
2022-11-10T02:36:15.498Z,99896.84
2022-11-10T02:39:22.698Z,99902.09
2022-11-10T02:42:28.604Z,99896.03
2022-11-10T02:45:34.493Z,99899.41
2022-11-10T02:48:40.382Z,99902.78
2022-11-10T02:51:46.206Z,99903.63
2022-11-10T02:54:53.639Z,99912.25
2022-11-10T02:57:59.796Z,99902.78
2022-11-10T03:01:07.474Z,99908.94
2022-11-10T03:04:13.876Z,99908.94
2022-11-10T03:07:19.914Z,99913.25
2022-11-10T03:10:28.347Z,99913.38
2022-11-10T03:13:51.787Z,99921.06
2022-11-10T03:17:00.305Z,99913.59
2022-11-10T03:20:07.114Z,99915.56
2022-11-10T03:23:12.874Z,99903.97
2022-11-10T03:26:20.345Z,99916.06
2022-11-10T03:29:26.234Z,99918.00
2022-11-10T03:32:32.300Z,99932.56
2022-11-10T03:35:38.354Z,99937.69
2022-11-10T03:38:44.147Z,99948.03
2022-11-10T03:41:51.579Z,99952.44
2022-11-10T03:44:57.296Z,99955.00
2022-11-10T03:48:03.230Z,99959.22
2022-11-10T03:51:09.161Z,99949.06
2022-11-10T03:54:14.983Z,99955.19
2022-11-10T03:57:22.347Z,99966.28
2022-11-10T04:00:29.315Z,99979.00
2022-11-10T04:03:35.308Z,99979.00
2022-11-10T04:06:58.632Z,99989.44
2022-11-10T04:10:05.353Z,100008.38
2022-11-10T04:13:31.516Z,99998.97
2022-11-10T04:16:37.482Z,99998.97
2022-11-10T04:19:43.636Z,100001.53
2022-11-10T04:23:22.333Z,100015.25
2022-11-10T04:26:30.934Z,100015.34
2022-11-10T04:29:38.156Z,100024.78
2022-11-10T04:32:44.028Z,100021.50
2022-11-10T04:35:49.673Z,100031.09
2022-11-10T04:38:56.465Z,100033.75
2022-11-10T04:42:03.030Z,100046.78
2022-11-10T04:45:11.428Z,100037.53
2022-11-10T04:48:17.655Z,100039.28
2022-11-10T04:51:26.147Z,100039.19
2022-11-10T04:54:32.385Z,100049.34
2022-11-10T04:57:38.510Z,100048.22
2022-11-10T05:00:46.443Z,100056.56
2022-11-10T05:03:52.986Z,100047.13
2022-11-10T05:06:58.692Z,100032.50
2022-11-10T05:10:05.320Z,100046.81
2022-11-10T05:13:11.538Z,100059.56
2022-11-10T05:16:18.796Z,100059.56
2022-11-10T05:19:24.440Z,100059.56
2022-11-10T05:22:30.866Z,100057.81
2022-11-10T05:25:39.650Z,100061.28
2022-11-10T05:28:47.460Z,100063.03
2022-11-10T05:31:54.486Z,100080.25
2022-11-10T05:35:00.323Z,100085.47
2022-11-10T05:38:06.936Z,100100.94
2022-11-10T05:41:13.221Z,100090.78
2022-11-10T05:44:19.289Z,100091.69
2022-11-10T05:47:26.701Z,100121.72
2022-11-10T05:50:32.819Z,100125.31
2022-11-10T05:53:38.918Z,100127.84
2022-11-10T05:56:45.957Z,100127.97
2022-11-10T05:59:52.499Z,100129.78
2022-11-10T06:03:02.150Z,100146.16
2022-11-10T06:06:09.090Z,100160.72
2022-11-10T06:09:15.300Z,100178.75
2022-11-10T06:12:21.825Z,100164.28
2022-11-10T06:15:28.052Z,100177.09
2022-11-10T06:18:35.545Z,100180.56
2022-11-10T06:21:41.187Z,100177.09
2022-11-10T06:24:47.067Z,100195.75
2022-11-10T06:27:53.022Z,100193.13
2022-11-10T06:30:59.397Z,100193.84
2022-11-10T06:34:06.932Z,100202.28
2022-11-10T06:37:12.959Z,100217.56
2022-11-10T06:40:19.363Z,100224.50
2022-11-10T06:43:25.491Z,100237.50
2022-11-10T06:46:31.572Z,100243.53
2022-11-10T06:49:39.158Z,100238.50
2022-11-10T06:52:44.842Z,100239.31
2022-11-10T06:55:51.745Z,100251.31
2022-11-10T06:58:57.512Z,100266.78
2022-11-10T07:02:03.747Z,100282.25
2022-11-10T07:04:52.110Z,100290.72
2022-11-10T07:07:39.653Z,100288.19
2022-11-10T07:10:26.617Z,100308.69
2022-11-10T07:13:13.709Z,100295.78
2022-11-10T07:16:00.894Z,100304.31
2022-11-10T07:18:49.218Z,100300.75
2022-11-10T07:21:37.759Z,100297.34
2022-11-10T07:24:24.615Z,100299.72
2022-11-10T07:27:11.497Z,100302.84
2022-11-10T07:29:58.513Z,100301.66
2022-11-10T07:32:45.900Z,100300.66
2022-11-10T07:35:34.698Z,100304.78
2022-11-10T07:38:23.273Z,100315.88
2022-11-10T07:41:10.659Z,100315.88
2022-11-10T07:43:57.830Z,100316.69
2022-11-10T07:46:44.774Z,100326.94
2022-11-10T07:49:31.914Z,100337.38
2022-11-10T07:52:18.915Z,100340.03
2022-11-10T07:55:08.535Z,100356.31
2022-11-10T07:57:59.157Z,100352.91
2022-11-10T08:00:47.627Z,100364.91
2022-11-10T08:03:34.853Z,100362.34
2022-11-10T08:06:21.811Z,100360.59
2022-11-10T08:09:08.974Z,100355.41
2022-11-10T08:11:57.713Z,100364.66
2022-11-10T08:14:44.932Z,100367.06
2022-11-10T08:17:31.817Z,100372.81
2022-11-10T08:20:19.626Z,100376.84
2022-11-10T08:23:08.273Z,100378.31
2022-11-10T08:25:55.448Z,100383.22
2022-11-10T08:28:44.263Z,100388.91
2022-11-10T08:31:33.338Z,100372.38
2022-11-10T08:34:21.691Z,100379.78
2022-11-10T08:37:09.087Z,100384.66
2022-11-10T08:39:56.045Z,100384.38
2022-11-10T08:42:42.961Z,100396.91
2022-11-10T08:45:31.536Z,100402.63
2022-11-10T08:48:20.748Z,100396.38
2022-11-10T08:51:07.670Z,100401.16
2022-11-10T08:53:54.736Z,100405.09
2022-11-10T08:56:41.752Z,100405.75
2022-11-10T08:59:28.667Z,100402.09
2022-11-10T09:02:17.224Z,100411.25
2022-11-10T09:05:04.519Z,100420.44
2022-11-10T09:07:52.553Z,100415.91
2022-11-10T09:10:43.096Z,100420.91
2022-11-10T09:13:31.139Z,100423.16
2022-11-10T09:16:18.719Z,100434.09
2022-11-10T09:19:07.442Z,100428.75
2022-11-10T09:21:54.781Z,100432.91
2022-11-10T09:24:42.073Z,100435.28
2022-11-10T09:27:29.574Z,100447.91
2022-11-10T09:30:18.240Z,100455.56
2022-11-10T09:33:05.672Z,100460.59
2022-11-10T09:35:59.808Z,100456.16
2022-11-10T09:38:47.005Z,100461.16
2022-11-10T09:41:34.393Z,100467.91
2022-11-10T09:44:26.994Z,100463.44
2022-11-10T09:47:50.789Z,100471.03
2022-11-10T09:50:38.345Z,100473.59
2022-11-10T09:53:32.731Z,100486.28
2022-11-10T09:56:27.384Z,100477.66
2022-11-10T09:59:20.875Z,100479.22
2022-11-10T10:02:22.523Z,100486.03
2022-11-10T10:05:47.666Z,100481.69
2022-11-10T10:08:50.784Z,100476.38
2022-11-10T10:11:55.131Z,100475.47
2022-11-10T10:15:16.731Z,100480.50
2022-11-10T10:18:22.602Z,100492.34
2022-11-10T10:21:28.445Z,100493.09
2022-11-10T10:24:22.100Z,100487.00
2022-11-10T10:27:18.761Z,100485.19
2022-11-10T10:30:15.195Z,100497.81
2022-11-10T10:33:15.906Z,100502.88
2022-11-10T10:36:09.814Z,100498.56
2022-11-10T10:39:02.957Z,100490.78
2022-11-10T10:41:51.250Z,100485.53
2022-11-10T10:44:38.461Z,100484.63
2022-11-10T10:47:38.373Z,100487.09
2022-11-10T10:50:32.347Z,100492.13
2022-11-10T10:53:22.493Z,100485.25
2022-11-10T10:56:20.234Z,100491.22
2022-11-10T10:59:21.702Z,100495.44
2022-11-10T11:02:27.038Z,100492.94
2022-11-10T11:05:17.645Z,100495.44
2022-11-10T11:08:05.813Z,100489.38
2022-11-10T11:10:53.108Z,100489.38
2022-11-10T11:13:40.137Z,100489.28
2022-11-10T11:16:28.755Z,100491.03
2022-11-10T11:19:16.456Z,100490.94
2022-11-10T11:22:46.305Z,100491.84
2022-11-10T11:25:37.820Z,100494.50
2022-11-10T11:28:36.071Z,100494.50
2022-11-10T11:31:42.816Z,100492.88
2022-11-10T11:34:41.197Z,100493.78
2022-11-10T11:37:33.977Z,100486.09
2022-11-10T11:40:30.197Z,100496.34
2022-11-10T11:44:02.011Z,100497.38
2022-11-10T11:47:10.656Z,100501.59
2022-11-10T11:50:15.627Z,100504.16
2022-11-10T11:53:21.180Z,100508.47
2022-11-10T11:56:22.762Z,100507.66
2022-11-10T11:59:38.234Z,100507.56
2022-11-10T12:03:01.397Z,100500.75
2022-11-10T12:06:01.581Z,100504.16
2022-11-10T12:09:02.740Z,100515.25
2022-11-10T12:12:07.816Z,100513.59
2022-11-10T12:15:03.995Z,100507.66
2022-11-10T12:18:05.364Z,100503.31
2022-11-10T12:21:09.421Z,100506.75
2022-11-10T12:24:18.004Z,100503.31
2022-11-10T12:27:14.139Z,100509.31
2022-11-10T12:30:06.419Z,100515.25
2022-11-10T12:33:00.786Z,100512.59
2022-11-10T12:35:48.204Z,100512.59
2022-11-10T12:38:59.467Z,100504.06
2022-11-10T12:41:51.044Z,100507.44
2022-11-10T12:44:55.783Z,100504.78
2022-11-10T12:47:45.732Z,100506.53
2022-11-10T12:50:52.700Z,100503.97
2022-11-10T12:53:42.256Z,100509.94
2022-11-10T12:56:35.846Z,100511.59
2022-11-10T12:59:33.623Z,100515.81
2022-11-10T13:02:33.140Z,100521.75
2022-11-10T13:05:31.261Z,100525.25
2022-11-10T13:08:28.322Z,100533.81
2022-11-10T13:11:29.392Z,100540.66
2022-11-10T13:14:26.424Z,100529.56
2022-11-10T13:18:00.707Z,100522.88
2022-11-10T13:20:53.362Z,100533.16
2022-11-10T13:24:25.403Z,100538.38
2022-11-10T13:27:14.962Z,100543.53
2022-11-10T13:30:02.205Z,100540.03
2022-11-10T13:32:50.821Z,100536.63
2022-11-10T13:35:55.453Z,100542.63
2022-11-10T13:38:44.367Z,100534.91
2022-11-10T13:41:35.608Z,100538.38
2022-11-10T13:44:26.255Z,100541.78
2022-11-10T13:47:47.988Z,100540.16
2022-11-10T13:50:54.190Z,100546.09
2022-11-10T13:53:56.187Z,100543.53
2022-11-10T13:57:13.037Z,100536.72
2022-11-10T14:00:04.763Z,100538.59
2022-11-10T14:02:56.078Z,100549.56
2022-11-10T14:06:11.344Z,100550.53
2022-11-10T14:09:06.171Z,100557.28
2022-11-10T14:11:59.807Z,100553.00
2022-11-10T14:14:56.122Z,100553.91
2022-11-10T14:17:49.627Z,100549.56
2022-11-10T14:20:44.488Z,100559.03
2022-11-10T14:23:38.269Z,100560.81
2022-11-10T14:26:33.268Z,100556.56
2022-11-10T14:29:34.140Z,100557.47
2022-11-10T14:32:24.856Z,100560.97
2022-11-10T14:35:22.927Z,100566.09
2022-11-10T14:38:21.109Z,100561.06
2022-11-10T14:41:18.841Z,100566.19
2022-11-10T14:44:08.263Z,100570.53
2022-11-10T14:46:56.975Z,100570.53
2022-11-10T14:49:45.023Z,100569.69
2022-11-10T14:52:31.982Z,100568.88
2022-11-10T14:55:23.227Z,100568.88
2022-11-10T14:58:14.956Z,100581.72
2022-11-10T15:01:03.838Z,100581.72
2022-11-10T15:03:53.142Z,100579.34
2022-11-10T15:06:45.779Z,100587.03
2022-11-10T15:09:35.235Z,100580.16
2022-11-10T15:12:27.453Z,100588.59
2022-11-10T15:15:22.522Z,100592.91
2022-11-10T15:18:27.040Z,100599.88
2022-11-10T15:21:19.925Z,100603.38
2022-11-10T15:24:08.297Z,100597.41
2022-11-10T15:26:55.762Z,100601.81
2022-11-10T15:29:42.914Z,100600.03
2022-11-10T15:32:36.279Z,100608.69
2022-11-10T15:35:31.762Z,100601.91
2022-11-10T15:38:32.185Z,100597.66
2022-11-10T15:41:27.344Z,100603.72
2022-11-10T15:44:22.341Z,100596.00
2022-11-10T15:47:14.454Z,100598.56
2022-11-10T15:50:02.244Z,100593.53
2022-11-10T15:52:49.374Z,100598.75
2022-11-10T15:55:37.656Z,100605.66
2022-11-10T15:58:25.513Z,100611.78
2022-11-10T16:01:13.836Z,100621.25
2022-11-10T16:04:01.616Z,100609.31
2022-11-10T16:06:48.801Z,100613.63
2022-11-10T16:09:35.972Z,100623.16
2022-11-10T16:12:25.246Z,100623.97
2022-11-10T16:15:20.970Z,100627.47
2022-11-10T16:18:14.007Z,100638.59
2022-11-10T16:21:01.317Z,100636.91
2022-11-10T16:23:48.584Z,100646.38
2022-11-10T16:26:36.133Z,100638.66
2022-11-10T16:29:24.993Z,100630.13
2022-11-10T16:32:13.159Z,100636.16
2022-11-10T16:35:00.618Z,100647.34
2022-11-10T16:37:47.694Z,100652.66
2022-11-10T16:40:35.116Z,100653.56
2022-11-10T16:43:22.973Z,100654.47
2022-11-10T16:46:20.430Z,100647.78
2022-11-10T16:49:22.355Z,100659.81
2022-11-10T16:52:15.527Z,100659.91
2022-11-10T16:55:02.544Z,100659.97
2022-11-10T16:57:49.735Z,100660.91
2022-11-10T17:00:37.587Z,100666.94
2022-11-10T17:03:32.657Z,100660.91
2022-11-10T17:06:21.629Z,100672.97
2022-11-10T17:09:19.090Z,100661.91
2022-11-10T17:12:06.978Z,100674.81
2022-11-10T17:14:53.939Z,100668.94
2022-11-10T17:17:41.950Z,100679.19
2022-11-10T17:20:36.141Z,100679.38
2022-11-10T17:23:25.977Z,100676.16
2022-11-10T17:26:15.569Z,100679.72
2022-11-10T17:29:02.494Z,100676.41
2022-11-10T17:31:51.015Z,100685.13
2022-11-10T17:34:37.997Z,100693.00
2022-11-10T17:37:26.414Z,100694.91
2022-11-10T17:40:20.431Z,100701.88
2022-11-10T17:43:07.449Z,100705.59
2022-11-10T17:45:54.384Z,100701.44
2022-11-10T17:48:41.975Z,100704.09
2022-11-10T17:51:29.224Z,100702.69
2022-11-10T17:54:18.452Z,100715.69
2022-11-10T17:57:06.745Z,100715.03
2022-11-10T17:59:55.418Z,100715.22
2022-11-10T18:02:43.435Z,100714.53
2022-11-10T18:05:30.891Z,100716.38
2022-11-10T18:08:19.136Z,100721.69
2022-11-10T18:11:07.518Z,100720.00
2022-11-10T18:13:54.416Z,100714.13
2022-11-10T18:16:41.745Z,100726.22
2022-11-10T18:19:28.655Z,100727.22
2022-11-10T18:22:16.056Z,100722.25
2022-11-10T18:25:02.986Z,100722.31
2022-11-10T18:27:51.444Z,100730.84
2022-11-10T18:30:39.608Z,100732.66
2022-11-10T18:33:26.948Z,100734.41
2022-11-10T18:36:13.834Z,100736.19
2022-11-10T18:39:01.240Z,100736.38
2022-11-10T18:41:50.884Z,100735.63
2022-11-10T18:44:39.516Z,100727.25
2022-11-10T18:47:26.646Z,100730.78
2022-11-10T18:50:14.366Z,100725.75
2022-11-10T18:53:01.319Z,100735.19
2022-11-10T18:55:55.621Z,100736.97
2022-11-10T18:58:43.464Z,100744.75
2022-11-10T19:01:32.380Z,100746.56
2022-11-10T19:04:19.817Z,100744.06
2022-11-10T19:07:07.529Z,100738.13
2022-11-10T19:09:55.224Z,100744.06
2022-11-10T19:12:42.341Z,100745.75
2022-11-10T19:15:29.832Z,100750.88
2022-11-10T19:18:18.687Z,100746.56
2022-11-10T19:21:06.857Z,100746.56
2022-11-10T19:23:56.902Z,100756.00
2022-11-10T19:26:44.276Z,100761.13
2022-11-10T19:29:31.546Z,100762.03
2022-11-10T19:32:23.610Z,100768.06
2022-11-10T19:35:13.642Z,100769.06
2022-11-10T19:38:00.883Z,100774.25
2022-11-10T19:40:47.764Z,100770.06
2022-11-10T19:43:35.156Z,100783.78
2022-11-10T19:46:24.684Z,100790.66
2022-11-10T19:49:12.028Z,100803.50
2022-11-10T19:52:00.756Z,100808.72
2022-11-10T19:54:48.036Z,100800.38
2022-11-10T19:57:34.865Z,100818.44
2022-11-10T20:00:21.818Z,100823.75
2022-11-10T20:03:11.528Z,100830.69
2022-11-10T20:06:01.373Z,100834.16
2022-11-10T20:08:50.469Z,100832.50
2022-11-10T20:11:37.893Z,100837.84
2022-11-10T20:14:25.251Z,100848.16
2022-11-10T20:17:12.518Z,100834.53
2022-11-10T20:19:59.654Z,100825.09
2022-11-10T20:22:46.584Z,100808.00
2022-11-10T20:25:35.667Z,100808.00
2022-11-10T20:28:22.877Z,100806.34
2022-11-10T20:31:13.543Z,100814.09
2022-11-10T20:34:00.582Z,100814.25
2022-11-10T20:36:47.763Z,100809.13
2022-11-10T20:39:34.776Z,100814.25
2022-11-10T20:42:23.237Z,100810.03
2022-11-10T20:45:11.509Z,100813.50
2022-11-10T20:47:59.842Z,100808.44
2022-11-10T20:50:47.021Z,100805.97
2022-11-10T20:53:33.925Z,100803.47
2022-11-10T20:56:25.390Z,100811.25
2022-11-10T20:59:17.996Z,100809.75
2022-11-10T21:02:04.979Z,100808.88
2022-11-10T21:05:11.407Z,100811.53
2022-11-10T21:08:17.392Z,100811.63
2022-11-10T21:11:37.370Z,100815.16
2022-11-10T21:14:44.748Z,100815.31
2022-11-10T21:17:50.537Z,100817.09
2022-11-10T21:20:56.635Z,100819.66
2022-11-10T21:24:02.986Z,100818.03
2022-11-10T21:27:11.675Z,100816.34
2022-11-10T21:30:23.960Z,100819.91
2022-11-10T21:33:30.193Z,100829.38
2022-11-10T21:36:36.362Z,100836.31
2022-11-10T21:39:43.983Z,100831.34
2022-11-10T21:42:49.688Z,100826.34
2022-11-10T21:46:01.188Z,100826.44
2022-11-10T21:49:08.042Z,100828.97
2022-11-10T21:52:14.274Z,100832.44
2022-11-10T21:55:20.432Z,100834.19
2022-11-10T21:58:26.719Z,100825.69
2022-11-10T22:01:34.024Z,100824.75
2022-11-10T22:04:40.505Z,100819.63
2022-11-10T22:07:46.317Z,100812.88
2022-11-10T22:11:09.953Z,100809.38
2022-11-10T22:14:29.856Z,100801.84
2022-11-10T22:17:54.155Z,100794.25
2022-11-10T22:21:00.356Z,100808.03
2022-11-10T22:24:26.608Z,100801.25
2022-11-10T22:27:32.573Z,100810.75
2022-11-10T22:30:38.840Z,100814.44
2022-11-10T22:33:46.053Z,100821.53
2022-11-10T22:36:53.643Z,100825.88
2022-11-10T22:40:17.692Z,100832.66
2022-11-10T22:43:41.183Z,100833.56
2022-11-10T22:46:51.115Z,100831.97
2022-11-10T22:49:58.117Z,100831.06
2022-11-10T22:53:03.865Z,100830.19
2022-11-10T22:56:10.344Z,100824.91
2022-11-10T22:59:17.270Z,100832.56
2022-11-10T23:02:23.155Z,100823.97
2022-11-10T23:05:30.428Z,100825.63
2022-11-10T23:08:37.229Z,100817.97
2022-11-10T23:11:42.942Z,100822.13
2022-11-10T23:14:48.908Z,100820.28
2022-11-10T23:17:56.567Z,100812.53
2022-11-10T23:21:07.345Z,100818.59
2022-11-10T23:24:14.530Z,100813.50
2022-11-10T23:27:20.306Z,100816.22
2022-11-10T23:30:26.319Z,100818.91
2022-11-10T23:33:33.438Z,100828.28
2022-11-10T23:36:42.012Z,100812.25
2022-11-10T23:39:47.784Z,100823.47
2022-11-10T23:42:54.155Z,100832.94
2022-11-10T23:46:07.006Z,100829.56
2022-11-10T23:49:13.551Z,100826.19
2022-11-10T23:52:20.958Z,100826.19
2022-11-10T23:55:26.867Z,100825.34
2022-11-10T23:58:33.647Z,100833.09
